createdAt,value
2022-12-16T00:04:13.712Z,13.60
2022-12-16T00:09:41.711Z,14.50
2022-12-16T00:15:05.688Z,16.57
2022-12-16T00:20:30.692Z,16.67
2022-12-16T00:25:59.739Z,16.17
2022-12-16T00:31:24.775Z,16.90
2022-12-16T00:36:49.775Z,16.10
2022-12-16T00:42:17.749Z,16.17
2022-12-16T00:47:44.023Z,14.33
2022-12-16T00:53:09.719Z,13.70
2022-12-16T00:58:36.757Z,13.77
2022-12-16T01:04:07.738Z,14.50
2022-12-16T01:14:59.748Z,13.00
2022-12-16T01:20:25.698Z,13.60
2022-12-16T01:25:51.725Z,13.40
2022-12-16T01:31:19.798Z,14.10
2022-12-16T01:36:43.781Z,14.13
2022-12-16T01:42:08.754Z,14.50
2022-12-16T01:47:41.768Z,14.07
2022-12-16T01:53:12.747Z,14.40
2022-12-16T02:04:16.732Z,15.00
2022-12-16T02:09:41.734Z,18.90
2022-12-16T02:15:28.754Z,23.57
2022-12-16T02:21:21.752Z,20.57
2022-12-16T02:27:24.780Z,15.63
2022-12-16T02:33:03.758Z,19.10
2022-12-16T02:38:38.748Z,18.23
2022-12-16T02:44:07.741Z,17.35
2022-12-16T02:50:04.822Z,17.05
2022-12-16T02:55:31.767Z,16.80
2022-12-16T03:01:06.884Z,16.50
2022-12-16T03:06:36.771Z,15.93
2022-12-16T03:12:02.796Z,15.27
2022-12-16T03:17:29.774Z,21.33
2022-12-16T03:22:59.738Z,17.07
2022-12-16T03:28:36.760Z,14.73
2022-12-16T03:34:05.784Z,16.10
2022-12-16T03:39:34.766Z,15.63
2022-12-16T03:44:59.794Z,19.42
2022-12-16T03:50:24.748Z,18.80
2022-12-16T03:55:51.761Z,17.50
2022-12-16T04:01:16.791Z,17.43
2022-12-16T04:06:35.787Z,18.60
2022-12-16T04:12:18.864Z,17.10
2022-12-16T04:17:56.836Z,19.60
2022-12-16T04:23:35.178Z,21.83
2022-12-16T04:29:02.789Z,20.90
2022-12-16T04:34:36.810Z,20.70
2022-12-16T04:40:13.796Z,19.03
2022-12-16T04:45:53.817Z,19.17
2022-12-16T04:51:31.796Z,19.70
2022-12-16T04:57:09.798Z,18.20
2022-12-16T05:02:49.924Z,18.63
2022-12-16T05:08:26.764Z,19.60
2022-12-16T05:14:03.787Z,17.03
2022-12-16T05:19:43.777Z,17.73
2022-12-16T05:25:20.795Z,18.90
2022-12-16T05:30:57.809Z,19.53
2022-12-16T05:36:37.846Z,23.13
2022-12-16T05:42:14.811Z,22.23
2022-12-16T05:47:51.777Z,21.67
2022-12-16T05:53:32.133Z,20.37
2022-12-16T05:59:09.807Z,22.43
2022-12-16T06:04:53.781Z,23.13
2022-12-16T06:10:33.790Z,24.67
2022-12-16T06:16:16.841Z,27.67
2022-12-16T06:21:53.820Z,26.60
2022-12-16T06:27:33.814Z,26.80
2022-12-16T06:33:10.804Z,26.33
2022-12-16T06:38:47.873Z,26.70
2022-12-16T06:44:27.800Z,27.03
2022-12-16T06:50:04.813Z,27.57
2022-12-16T06:55:42.821Z,26.93
2022-12-16T07:01:22.887Z,29.20
2022-12-16T07:06:59.851Z,27.67
2022-12-16T07:12:36.828Z,28.63
2022-12-16T07:18:16.806Z,28.33
2022-12-16T07:23:53.833Z,22.27
2022-12-16T07:29:31.827Z,21.60
2022-12-16T07:35:14.826Z,20.20
2022-12-16T07:40:52.860Z,20.60
2022-12-16T07:46:31.181Z,19.63
2022-12-16T07:52:10.855Z,20.63
2022-12-16T07:57:47.832Z,19.77
2022-12-16T08:03:35.171Z,20.70
2022-12-16T08:09:14.869Z,21.10
2022-12-16T08:14:51.898Z,22.83
2022-12-16T08:20:31.854Z,23.93
2022-12-16T08:26:11.909Z,21.70
2022-12-16T08:31:50.847Z,22.50
2022-12-16T08:37:27.913Z,23.73
2022-12-16T08:43:12.605Z,23.10
2022-12-16T08:48:49.883Z,22.93
2022-12-16T08:54:27.861Z,23.80
2022-12-16T09:00:07.844Z,24.00
2022-12-16T09:05:51.859Z,23.50
2022-12-16T09:11:28.894Z,24.97
2022-12-16T09:17:08.956Z,24.07
2022-12-16T09:22:45.894Z,24.00
2022-12-16T09:28:22.883Z,25.53
2022-12-16T09:34:02.888Z,24.30
2022-12-16T09:39:39.879Z,25.13
2022-12-16T09:45:25.889Z,23.93
2022-12-16T09:51:15.933Z,27.33
2022-12-16T09:56:56.137Z,25.93
2022-12-16T10:02:40.028Z,26.20
2022-12-16T10:08:30.903Z,22.70
2022-12-16T10:14:26.902Z,24.02
2022-12-16T10:20:12.891Z,23.77
2022-12-16T10:25:57.898Z,23.33
2022-12-16T10:31:38.981Z,22.47
2022-12-16T10:37:21.114Z,22.75
2022-12-16T10:43:10.896Z,20.42
2022-12-16T10:48:57.064Z,23.20
2022-12-16T10:54:46.940Z,21.40
2022-12-16T11:00:43.961Z,21.60
2022-12-16T11:06:22.887Z,21.05
2022-12-16T11:12:00.894Z,21.52
2022-12-16T11:17:45.905Z,21.88
2022-12-16T11:23:38.093Z,20.83
2022-12-16T11:29:31.900Z,19.83
2022-12-16T11:35:20.945Z,20.70
2022-12-16T11:40:59.938Z,19.77
2022-12-16T11:46:41.986Z,20.30
2022-12-16T11:52:40.215Z,19.13
2022-12-16T11:58:25.901Z,19.23
2022-12-16T12:04:14.995Z,19.27
2022-12-16T12:10:02.903Z,18.73
2022-12-16T12:15:52.915Z,18.67
2022-12-16T12:21:41.915Z,17.92
2022-12-16T12:27:30.923Z,17.25
2022-12-16T12:33:18.943Z,18.23
2022-12-16T12:39:02.938Z,18.70
2022-12-16T12:44:53.929Z,18.80
2022-12-16T12:50:37.906Z,19.48
2022-12-16T12:56:26.951Z,19.75
2022-12-16T13:02:12.009Z,19.92
2022-12-16T13:07:53.931Z,19.25
2022-12-16T13:14:04.924Z,19.98
2022-12-16T13:20:04.996Z,18.38
2022-12-16T13:26:01.938Z,18.33
2022-12-16T13:31:40.980Z,17.33
2022-12-16T13:37:33.918Z,17.58
2022-12-16T13:43:18.181Z,16.88
2022-12-16T13:49:07.228Z,17.20
2022-12-16T13:54:52.924Z,17.35
2022-12-16T14:00:36.431Z,17.83
2022-12-16T14:06:24.016Z,17.83
2022-12-16T14:12:11.950Z,18.15
2022-12-16T14:17:54.934Z,17.77
2022-12-16T14:23:57.743Z,18.70
2022-12-16T14:30:00.965Z,19.20
2022-12-16T14:35:41.034Z,19.13
2022-12-16T14:41:20.937Z,20.20
2022-12-16T14:47:02.963Z,20.38
2022-12-16T14:52:45.944Z,20.33
2022-12-16T14:58:24.933Z,19.50
2022-12-16T15:04:14.120Z,19.83
2022-12-16T15:09:55.928Z,20.13
2022-12-16T15:15:37.978Z,20.73
2022-12-16T15:21:17.945Z,20.05
2022-12-16T15:26:56.996Z,20.90
2022-12-16T15:32:52.950Z,23.98
2022-12-16T15:38:39.974Z,21.60
2022-12-16T15:44:23.948Z,21.25
2022-12-16T15:50:04.617Z,20.05
2022-12-16T15:55:52.003Z,20.92
2022-12-16T16:01:30.069Z,20.98
2022-12-16T16:07:19.032Z,22.85
2022-12-16T16:12:59.004Z,23.75
2022-12-16T16:18:38.960Z,25.30
2022-12-16T16:24:15.949Z,26.60
2022-12-16T16:29:55.963Z,24.13
2022-12-16T16:35:32.991Z,22.40
2022-12-16T16:41:11.986Z,24.30
2022-12-16T16:47:00.140Z,23.42
2022-12-16T16:52:41.985Z,24.13
2022-12-16T16:58:20.990Z,25.80
2022-12-16T17:04:08.058Z,25.07
2022-12-16T17:09:44.981Z,27.13
2022-12-16T17:15:28.970Z,26.30
2022-12-16T17:21:08.984Z,26.47
2022-12-16T17:26:47.018Z,27.63
2022-12-16T17:32:26.981Z,27.67
2022-12-16T17:38:07.040Z,27.07
2022-12-16T17:43:43.999Z,31.33
2022-12-16T17:49:21.999Z,36.47
2022-12-16T17:55:01.984Z,44.03
2022-12-16T18:00:40.005Z,41.67
2022-12-16T18:06:17.988Z,38.53
2022-12-16T18:11:57.989Z,36.43
2022-12-16T18:17:35.017Z,36.70
2022-12-16T18:23:11.983Z,34.75
2022-12-16T18:28:53.996Z,28.10
2022-12-16T18:34:30.989Z,27.97
2022-12-16T18:40:14.995Z,27.70
2022-12-16T18:45:55.082Z,30.08
2022-12-16T18:51:32.994Z,29.25
2022-12-16T18:57:10.016Z,27.27
2022-12-16T19:02:50.175Z,29.08
2022-12-16T19:08:27.980Z,29.77
2022-12-16T19:14:04.989Z,30.60
2022-12-16T19:19:45.007Z,29.10
2022-12-16T19:25:21.999Z,29.67
2022-12-16T19:30:59.078Z,30.58
2022-12-16T19:36:41.605Z,31.33
2022-12-16T19:42:22.042Z,34.05
2022-12-16T19:47:59.053Z,33.08
2022-12-16T19:53:39.009Z,36.85
2022-12-16T19:59:18.035Z,32.70
2022-12-16T20:04:56.281Z,33.00
2022-12-16T20:10:37.066Z,33.30
2022-12-16T20:16:21.041Z,29.98
2022-12-16T20:22:00.680Z,30.30
2022-12-16T20:27:44.097Z,29.00
2022-12-16T20:33:22.126Z,29.40
2022-12-16T20:38:59.089Z,30.08
2022-12-16T20:44:39.024Z,30.10
2022-12-16T20:50:16.030Z,30.15
2022-12-16T20:55:53.024Z,29.83
2022-12-16T21:01:36.112Z,30.20
2022-12-16T21:07:13.142Z,29.73
2022-12-16T21:12:50.073Z,28.73
2022-12-16T21:18:30.041Z,29.20
2022-12-16T21:24:08.025Z,26.75
2022-12-16T21:29:46.055Z,27.17
2022-12-16T21:35:19.035Z,29.27
2022-12-16T21:40:56.183Z,26.48
2022-12-16T21:46:34.082Z,28.08
2022-12-16T21:52:14.068Z,29.30
2022-12-16T21:57:51.024Z,29.52
2022-12-16T22:03:30.058Z,30.35
2022-12-16T22:09:10.101Z,31.02
2022-12-16T22:14:54.080Z,31.98
2022-12-16T22:20:40.061Z,32.08
2022-12-16T22:26:25.058Z,31.42
2022-12-16T22:32:08.060Z,32.20
2022-12-16T22:37:45.125Z,30.40
2022-12-16T22:43:25.035Z,30.20
2022-12-16T22:49:02.063Z,30.00
2022-12-16T22:54:39.103Z,30.55
2022-12-16T23:00:19.057Z,30.98
2022-12-16T23:05:57.123Z,31.27
2022-12-16T23:11:35.095Z,31.98
2022-12-16T23:17:15.075Z,30.08
2022-12-16T23:22:53.073Z,30.58
2022-12-16T23:28:33.063Z,30.50
2022-12-16T23:34:13.089Z,28.98
2022-12-16T23:39:50.126Z,29.30
2022-12-16T23:45:27.120Z,28.65
2022-12-16T23:51:07.131Z,29.15
2022-12-16T23:56:45.111Z,30.70
